sensor_id;sensor_type;location;lat;lon;timestamp;P1;durP1;ratioP1;P2;durP2;ratioP2
3050;SDS011;1535;51.098;6.414;2024-02-26T00:01:56;14.00;;;13.50;;
3050;SDS011;1535;51.098;6.414;2024-02-26T00:04:25;14.00;;;13.50;;
3050;SDS011;1535;51.098;6.414;2024-02-26T00:06:52;14.40;;;13.90;;
3050;SDS011;1535;51.098;6.414;2024-02-26T00:09:19;15.03;;;14.53;;
3050;SDS011;1535;51.098;6.414;2024-02-26T00:11:47;16.43;;;15.73;;
3050;SDS011;1535;51.098;6.414;2024-02-26T00:14:14;17.43;;;16.63;;
3050;SDS011;1535;51.098;6.414;2024-02-26T00:16:41;18.50;;;17.57;;
3050;SDS011;1535;51.098;6.414;2024-02-26T00:19:10;18.93;;;17.93;;
3050;SDS011;1535;51.098;6.414;2024-02-26T00:21:41;20.17;;;18.97;;
3050;SDS011;1535;51.098;6.414;2024-02-26T00:24:08;20.93;;;19.63;;
3050;SDS011;1535;51.098;6.414;2024-02-26T00:26:35;21.53;;;20.13;;
3050;SDS011;1535;51.098;6.414;2024-02-26T00:29:02;21.30;;;20.00;;
3050;SDS011;1535;51.098;6.414;2024-02-26T00:31:29;22.20;;;20.70;;
3050;SDS011;1535;51.098;6.414;2024-02-26T00:33:56;20.43;;;19.13;;
3050;SDS011;1535;51.098;6.414;2024-02-26T00:36:24;20.00;;;18.80;;
3050;SDS011;1535;51.098;6.414;2024-02-26T00:38:52;20.23;;;19.03;;
3050;SDS011;1535;51.098;6.414;2024-02-26T00:41:20;19.80;;;18.60;;
3050;SDS011;1535;51.098;6.414;2024-02-26T00:43:47;19.17;;;18.07;;
3050;SDS011;1535;51.098;6.414;2024-02-26T00:46:14;19.07;;;17.97;;
3050;SDS011;1535;51.098;6.414;2024-02-26T00:48:41;18.87;;;17.77;;
3050;SDS011;1535;51.098;6.414;2024-02-26T00:51:08;18.47;;;17.47;;
3050;SDS011;1535;51.098;6.414;2024-02-26T00:53:35;18.63;;;17.63;;
3050;SDS011;1535;51.098;6.414;2024-02-26T00:56:04;18.37;;;17.37;;
3050;SDS011;1535;51.098;6.414;2024-02-26T00:58:32;17.90;;;16.90;;
3050;SDS011;1535;51.098;6.414;2024-02-26T01:00:59;18.47;;;17.47;;
3050;SDS011;1535;51.098;6.414;2024-02-26T01:03:26;18.60;;;17.60;;
3050;SDS011;1535;51.098;6.414;2024-02-26T01:05:54;18.90;;;17.80;;
3050;SDS011;1535;51.098;6.414;2024-02-26T01:08:20;18.47;;;17.47;;
3050;SDS011;1535;51.098;6.414;2024-02-26T01:10:47;18.10;;;17.10;;
3050;SDS011;1535;51.098;6.414;2024-02-26T01:13:15;18.60;;;17.60;;
3050;SDS011;1535;51.098;6.414;2024-02-26T01:15:43;18.70;;;17.70;;
3050;SDS011;1535;51.098;6.414;2024-02-26T01:18:10;18.50;;;17.50;;
3050;SDS011;1535;51.098;6.414;2024-02-26T01:20:37;18.23;;;17.23;;
3050;SDS011;1535;51.098;6.414;2024-02-26T01:23:04;18.60;;;17.60;;
3050;SDS011;1535;51.098;6.414;2024-02-26T01:25:31;18.50;;;17.50;;
3050;SDS011;1535;51.098;6.414;2024-02-26T01:27:59;18.37;;;17.37;;
3050;SDS011;1535;51.098;6.414;2024-02-26T01:30:27;17.90;;;17.00;;
3050;SDS011;1535;51.098;6.414;2024-02-26T01:32:54;17.80;;;16.90;;
3050;SDS011;1535;51.098;6.414;2024-02-26T01:35:21;17.87;;;16.97;;
3050;SDS011;1535;51.098;6.414;2024-02-26T01:37:48;17.60;;;16.70;;
3050;SDS011;1535;51.098;6.414;2024-02-26T01:40:16;17.53;;;16.70;;
3050;SDS011;1535;51.098;6.414;2024-02-26T01:42:44;17.43;;;16.63;;
3050;SDS011;1535;51.098;6.414;2024-02-26T01:45:13;17.70;;;16.80;;
3050;SDS011;1535;51.098;6.414;2024-02-26T01:47:47;17.00;;;16.20;;
3050;SDS011;1535;51.098;6.414;2024-02-26T01:50:14;17.10;;;16.30;;
3050;SDS011;1535;51.098;6.414;2024-02-26T01:52:41;16.50;;;15.80;;
3050;SDS011;1535;51.098;6.414;2024-02-26T01:55:09;17.23;;;16.43;;
3050;SDS011;1535;51.098;6.414;2024-02-26T01:57:36;16.57;;;15.87;;
3050;SDS011;1535;51.098;6.414;2024-02-26T02:00:03;16.70;;;16.00;;
3050;SDS011;1535;51.098;6.414;2024-02-26T02:02:32;16.70;;;16.00;;
3050;SDS011;1535;51.098;6.414;2024-02-26T02:05:01;17.20;;;16.43;;
3050;SDS011;1535;51.098;6.414;2024-02-26T02:07:28;16.50;;;15.80;;
3050;SDS011;1535;51.098;6.414;2024-02-26T02:09:55;16.60;;;15.90;;
3050;SDS011;1535;51.098;6.414;2024-02-26T02:12:23;15.73;;;15.13;;
3050;SDS011;1535;51.098;6.414;2024-02-26T02:14:50;16.50;;;15.80;;
3050;SDS011;1535;51.098;6.414;2024-02-26T02:17:17;16.40;;;15.70;;
3050;SDS011;1535;51.098;6.414;2024-02-26T02:19:45;16.00;;;15.40;;
3050;SDS011;1535;51.098;6.414;2024-02-26T02:22:14;15.77;;;15.17;;
3050;SDS011;1535;51.098;6.414;2024-02-26T02:24:41;15.90;;;15.30;;
3050;SDS011;1535;51.098;6.414;2024-02-26T02:27:08;15.93;;;15.33;;
3050;SDS011;1535;51.098;6.414;2024-02-26T02:29:35;16.00;;;15.40;;
3050;SDS011;1535;51.098;6.414;2024-02-26T02:32:03;15.80;;;15.20;;
3050;SDS011;1535;51.098;6.414;2024-02-26T02:34:31;15.40;;;14.80;;
3050;SDS011;1535;51.098;6.414;2024-02-26T02:36:59;15.47;;;14.87;;
3050;SDS011;1535;51.098;6.414;2024-02-26T02:39:27;15.80;;;15.20;;
3050;SDS011;1535;51.098;6.414;2024-02-26T02:41:54;15.60;;;15.00;;
3050;SDS011;1535;51.098;6.414;2024-02-26T02:44:21;15.00;;;14.50;;
3050;SDS011;1535;51.098;6.414;2024-02-26T02:46:48;14.77;;;14.27;;
3050;SDS011;1535;51.098;6.414;2024-02-26T02:49:18;15.30;;;14.80;;
3050;SDS011;1535;51.098;6.414;2024-02-26T02:51:45;15.23;;;14.73;;
3050;SDS011;1535;51.098;6.414;2024-02-26T02:54:12;15.70;;;15.10;;
3050;SDS011;1535;51.098;6.414;2024-02-26T02:56:40;15.50;;;15.00;;
3050;SDS011;1535;51.098;6.414;2024-02-26T02:59:08;14.83;;;14.33;;
3050;SDS011;1535;51.098;6.414;2024-02-26T03:01:35;15.03;;;14.53;;
3050;SDS011;1535;51.098;6.414;2024-02-26T03:04:02;15.27;;;14.77;;
3050;SDS011;1535;51.098;6.414;2024-02-26T03:06:29;15.40;;;14.90;;
3050;SDS011;1535;51.098;6.414;2024-02-26T03:08:56;15.40;;;14.90;;
3050;SDS011;1535;51.098;6.414;2024-02-26T03:11:23;15.63;;;15.13;;
3050;SDS011;1535;51.098;6.414;2024-02-26T03:13:53;14.80;;;14.30;;
3050;SDS011;1535;51.098;6.414;2024-02-26T03:16:20;15.37;;;14.87;;
3050;SDS011;1535;51.098;6.414;2024-02-26T03:18:47;15.40;;;14.90;;
3050;SDS011;1535;51.098;6.414;2024-02-26T03:21:17;15.23;;;14.73;;
3050;SDS011;1535;51.098;6.414;2024-02-26T03:23:44;15.47;;;14.97;;
3050;SDS011;1535;51.098;6.414;2024-02-26T03:26:12;15.63;;;15.13;;
3050;SDS011;1535;51.098;6.414;2024-02-26T03:28:39;15.40;;;14.90;;
3050;SDS011;1535;51.098;6.414;2024-02-26T03:31:08;15.27;;;14.77;;
3050;SDS011;1535;51.098;6.414;2024-02-26T03:33:37;15.87;;;15.37;;
3050;SDS011;1535;51.098;6.414;2024-02-26T03:36:04;16.70;;;16.10;;
3050;SDS011;1535;51.098;6.414;2024-02-26T03:38:32;16.90;;;16.30;;
3050;SDS011;1535;51.098;6.414;2024-02-26T03:40:59;16.23;;;15.73;;
3050;SDS011;1535;51.098;6.414;2024-02-26T03:43:26;16.33;;;15.83;;
3050;SDS011;1535;51.098;6.414;2024-02-26T03:45:53;16.33;;;15.83;;
3050;SDS011;1535;51.098;6.414;2024-02-26T03:48:22;16.30;;;15.80;;
3050;SDS011;1535;51.098;6.414;2024-02-26T03:50:49;15.60;;;15.10;;
3050;SDS011;1535;51.098;6.414;2024-02-26T03:53:16;15.40;;;14.90;;
3050;SDS011;1535;51.098;6.414;2024-02-26T03:55:44;15.63;;;15.13;;
3050;SDS011;1535;51.098;6.414;2024-02-26T03:58:12;15.70;;;15.20;;
3050;SDS011;1535;51.098;6.414;2024-02-26T04:00:40;15.60;;;15.10;;
3050;SDS011;1535;51.098;6.414;2024-02-26T04:03:07;15.70;;;15.20;;
3050;SDS011;1535;51.098;6.414;2024-02-26T04:05:37;15.50;;;15.00;;
3050;SDS011;1535;51.098;6.414;2024-02-26T04:08:04;15.47;;;14.97;;
3050;SDS011;1535;51.098;6.414;2024-02-26T04:10:32;16.07;;;15.57;;
3050;SDS011;1535;51.098;6.414;2024-02-26T04:13:03;16.60;;;16.10;;
3050;SDS011;1535;51.098;6.414;2024-02-26T04:15:30;15.30;;;14.83;;
3050;SDS011;1535;51.098;6.414;2024-02-26T04:17:57;16.10;;;15.60;;
3050;SDS011;1535;51.098;6.414;2024-02-26T04:20:24;16.20;;;15.70;;
3050;SDS011;1535;51.098;6.414;2024-02-26T04:22:53;15.10;;;14.67;;
3050;SDS011;1535;51.098;6.414;2024-02-26T04:25:20;16.30;;;15.80;;
3050;SDS011;1535;51.098;6.414;2024-02-26T04:27:47;16.80;;;16.30;;
3050;SDS011;1535;51.098;6.414;2024-02-26T04:30:14;16.30;;;15.80;;
3050;SDS011;1535;51.098;6.414;2024-02-26T04:32:43;15.87;;;15.37;;
3050;SDS011;1535;51.098;6.414;2024-02-26T04:35:10;16.60;;;16.10;;
3050;SDS011;1535;51.098;6.414;2024-02-26T04:37:37;16.20;;;15.70;;
3050;SDS011;1535;51.098;6.414;2024-02-26T04:40:08;16.30;;;15.80;;
3050;SDS011;1535;51.098;6.414;2024-02-26T04:42:35;16.17;;;15.67;;
3050;SDS011;1535;51.098;6.414;2024-02-26T04:45:02;16.40;;;15.90;;
3050;SDS011;1535;51.098;6.414;2024-02-26T04:47:31;16.20;;;15.70;;
3050;SDS011;1535;51.098;6.414;2024-02-26T04:49:58;15.87;;;15.37;;
3050;SDS011;1535;51.098;6.414;2024-02-26T04:52:26;15.93;;;15.43;;
3050;SDS011;1535;51.098;6.414;2024-02-26T04:54:53;16.03;;;15.53;;
3050;SDS011;1535;51.098;6.414;2024-02-26T04:57:22;15.27;;;14.83;;
3050;SDS011;1535;51.098;6.414;2024-02-26T04:59:49;15.87;;;15.37;;
3050;SDS011;1535;51.098;6.414;2024-02-26T05:02:16;16.30;;;15.80;;
3050;SDS011;1535;51.098;6.414;2024-02-26T05:04:43;16.53;;;16.03;;
3050;SDS011;1535;51.098;6.414;2024-02-26T05:07:10;16.33;;;15.83;;
3050;SDS011;1535;51.098;6.414;2024-02-26T05:09:38;17.27;;;16.70;;
3050;SDS011;1535;51.098;6.414;2024-02-26T05:12:05;18.10;;;17.50;;
3050;SDS011;1535;51.098;6.414;2024-02-26T05:14:34;17.97;;;17.37;;
3050;SDS011;1535;51.098;6.414;2024-02-26T05:17:01;17.40;;;16.83;;
3050;SDS011;1535;51.098;6.414;2024-02-26T05:19:28;17.57;;;16.97;;
3050;SDS011;1535;51.098;6.414;2024-02-26T05:21:55;17.60;;;17.00;;
3050;SDS011;1535;51.098;6.414;2024-02-26T05:24:22;17.87;;;17.27;;
3050;SDS011;1535;51.098;6.414;2024-02-26T05:26:49;17.93;;;17.33;;
3050;SDS011;1535;51.098;6.414;2024-02-26T05:29:16;17.80;;;17.20;;
3050;SDS011;1535;51.098;6.414;2024-02-26T05:31:45;17.37;;;16.77;;
3050;SDS011;1535;51.098;6.414;2024-02-26T05:34:12;16.37;;;15.87;;
3050;SDS011;1535;51.098;6.414;2024-02-26T05:36:39;16.83;;;16.33;;
3050;SDS011;1535;51.098;6.414;2024-02-26T05:39:06;17.80;;;17.20;;
3050;SDS011;1535;51.098;6.414;2024-02-26T05:41:36;17.83;;;17.23;;
3050;SDS011;1535;51.098;6.414;2024-02-26T05:44:03;17.97;;;17.37;;
3050;SDS011;1535;51.098;6.414;2024-02-26T05:46:30;17.00;;;16.50;;
3050;SDS011;1535;51.098;6.414;2024-02-26T05:48:59;17.57;;;16.97;;
3050;SDS011;1535;51.098;6.414;2024-02-26T05:51:26;18.20;;;17.60;;
3050;SDS011;1535;51.098;6.414;2024-02-26T05:53:53;17.23;;;16.70;;
3050;SDS011;1535;51.098;6.414;2024-02-26T05:56:20;17.13;;;16.63;;
3050;SDS011;1535;51.098;6.414;2024-02-26T05:58:47;17.20;;;16.70;;
3050;SDS011;1535;51.098;6.414;2024-02-26T06:01:15;16.80;;;16.30;;
3050;SDS011;1535;51.098;6.414;2024-02-26T06:03:42;16.63;;;16.13;;
3050;SDS011;1535;51.098;6.414;2024-02-26T06:06:11;16.50;;;16.00;;
3050;SDS011;1535;51.098;6.414;2024-02-26T06:08:40;16.80;;;16.30;;
3050;SDS011;1535;51.098;6.414;2024-02-26T06:11:07;16.60;;;16.10;;
3050;SDS011;1535;51.098;6.414;2024-02-26T06:13:34;17.57;;;17.00;;
3050;SDS011;1535;51.098;6.414;2024-02-26T06:16:01;17.50;;;16.90;;
3050;SDS011;1535;51.098;6.414;2024-02-26T06:18:28;18.00;;;17.40;;
3050;SDS011;1535;51.098;6.414;2024-02-26T06:20:55;16.87;;;16.37;;
3050;SDS011;1535;51.098;6.414;2024-02-26T06:23:24;15.97;;;15.47;;
3050;SDS011;1535;51.098;6.414;2024-02-26T06:25:52;16.80;;;16.30;;
3050;SDS011;1535;51.098;6.414;2024-02-26T06:28:19;15.90;;;15.40;;
3050;SDS011;1535;51.098;6.414;2024-02-26T06:30:46;16.43;;;15.93;;
3050;SDS011;1535;51.098;6.414;2024-02-26T06:33:13;16.50;;;16.00;;
3050;SDS011;1535;51.098;6.414;2024-02-26T06:35:40;16.67;;;16.17;;
3050;SDS011;1535;51.098;6.414;2024-02-26T06:38:08;17.17;;;16.67;;
3050;SDS011;1535;51.098;6.414;2024-02-26T06:40:38;15.90;;;15.40;;
3050;SDS011;1535;51.098;6.414;2024-02-26T06:43:05;16.20;;;15.70;;
3050;SDS011;1535;51.098;6.414;2024-02-26T06:45:32;16.77;;;16.27;;
3050;SDS011;1535;51.098;6.414;2024-02-26T06:47:59;17.30;;;16.80;;
3050;SDS011;1535;51.098;6.414;2024-02-26T06:50:27;16.50;;;16.00;;
3050;SDS011;1535;51.098;6.414;2024-02-26T06:52:54;16.77;;;16.27;;
3050;SDS011;1535;51.098;6.414;2024-02-26T06:55:21;16.83;;;16.33;;
3050;SDS011;1535;51.098;6.414;2024-02-26T06:57:50;16.97;;;16.47;;
3050;SDS011;1535;51.098;6.414;2024-02-26T07:00:17;16.40;;;15.90;;
3050;SDS011;1535;51.098;6.414;2024-02-26T07:02:44;16.77;;;16.27;;
3050;SDS011;1535;51.098;6.414;2024-02-26T07:05:11;16.40;;;15.90;;
3050;SDS011;1535;51.098;6.414;2024-02-26T07:07:39;16.70;;;16.20;;
3050;SDS011;1535;51.098;6.414;2024-02-26T07:10:06;16.07;;;15.57;;
3050;SDS011;1535;51.098;6.414;2024-02-26T07:12:34;16.30;;;15.80;;
3050;SDS011;1535;51.098;6.414;2024-02-26T07:15:03;14.70;;;14.30;;
3050;SDS011;1535;51.098;6.414;2024-02-26T07:17:30;15.67;;;15.27;;
3050;SDS011;1535;51.098;6.414;2024-02-26T07:19:59;15.63;;;15.23;;
3050;SDS011;1535;51.098;6.414;2024-02-26T07:22:26;16.10;;;15.60;;
3050;SDS011;1535;51.098;6.414;2024-02-26T07:24:53;15.90;;;15.40;;
3050;SDS011;1535;51.098;6.414;2024-02-26T07:27:20;15.23;;;14.83;;
3050;SDS011;1535;51.098;6.414;2024-02-26T07:29:47;16.27;;;15.77;;
3050;SDS011;1535;51.098;6.414;2024-02-26T07:32:16;15.60;;;15.20;;
3050;SDS011;1535;51.098;6.414;2024-02-26T07:34:43;16.00;;;15.50;;
3050;SDS011;1535;51.098;6.414;2024-02-26T07:37:10;16.27;;;15.77;;
3050;SDS011;1535;51.098;6.414;2024-02-26T07:39:37;15.70;;;15.20;;
3050;SDS011;1535;51.098;6.414;2024-02-26T07:42:05;15.90;;;15.40;;
3050;SDS011;1535;51.098;6.414;2024-02-26T07:44:32;14.63;;;14.23;;
3050;SDS011;1535;51.098;6.414;2024-02-26T07:47:00;14.80;;;14.40;;
3050;SDS011;1535;51.098;6.414;2024-02-26T07:49:29;14.40;;;14.00;;
3050;SDS011;1535;51.098;6.414;2024-02-26T07:51:56;14.40;;;14.00;;
3050;SDS011;1535;51.098;6.414;2024-02-26T07:54:23;14.07;;;13.67;;
3050;SDS011;1535;51.098;6.414;2024-02-26T07:56:50;14.83;;;14.43;;
3050;SDS011;1535;51.098;6.414;2024-02-26T07:59:17;14.43;;;14.03;;
3050;SDS011;1535;51.098;6.414;2024-02-26T08:01:48;14.20;;;13.80;;
3050;SDS011;1535;51.098;6.414;2024-02-26T08:04:16;13.23;;;12.93;;
3050;SDS011;1535;51.098;6.414;2024-02-26T08:06:44;14.70;;;14.30;;
3050;SDS011;1535;51.098;6.414;2024-02-26T08:09:11;14.40;;;14.00;;
3050;SDS011;1535;51.098;6.414;2024-02-26T08:11:38;15.00;;;14.60;;
3050;SDS011;1535;51.098;6.414;2024-02-26T08:14:06;15.20;;;14.80;;
3050;SDS011;1535;51.098;6.414;2024-02-26T08:16:33;15.07;;;14.67;;
3050;SDS011;1535;51.098;6.414;2024-02-26T08:19:00;15.07;;;14.67;;
3050;SDS011;1535;51.098;6.414;2024-02-26T08:21:27;15.83;;;15.33;;
3050;SDS011;1535;51.098;6.414;2024-02-26T08:23:55;14.73;;;14.33;;
3050;SDS011;1535;51.098;6.414;2024-02-26T08:26:23;15.00;;;14.60;;
3050;SDS011;1535;51.098;6.414;2024-02-26T08:28:50;14.50;;;14.10;;
3050;SDS011;1535;51.098;6.414;2024-02-26T08:31:17;15.27;;;14.80;;
3050;SDS011;1535;51.098;6.414;2024-02-26T08:33:44;15.47;;;14.97;;
3050;SDS011;1535;51.098;6.414;2024-02-26T08:36:12;15.10;;;14.70;;
3050;SDS011;1535;51.098;6.414;2024-02-26T08:38:39;14.77;;;14.37;;
3050;SDS011;1535;51.098;6.414;2024-02-26T08:41:07;14.47;;;14.07;;
3050;SDS011;1535;51.098;6.414;2024-02-26T08:43:34;14.67;;;14.27;;
3050;SDS011;1535;51.098;6.414;2024-02-26T08:46:02;14.90;;;14.50;;
3050;SDS011;1535;51.098;6.414;2024-02-26T08:48:29;15.30;;;14.90;;
3050;SDS011;1535;51.098;6.414;2024-02-26T08:50:56;14.30;;;13.90;;
3050;SDS011;1535;51.098;6.414;2024-02-26T08:53:23;14.40;;;14.00;;
3050;SDS011;1535;51.098;6.414;2024-02-26T08:55:52;14.57;;;14.17;;
3050;SDS011;1535;51.098;6.414;2024-02-26T08:58:20;13.83;;;13.43;;
3050;SDS011;1535;51.098;6.414;2024-02-26T09:00:47;13.87;;;13.47;;
3050;SDS011;1535;51.098;6.414;2024-02-26T09:03:15;14.47;;;14.07;;
3050;SDS011;1535;51.098;6.414;2024-02-26T09:05:42;14.17;;;13.77;;
3050;SDS011;1535;51.098;6.414;2024-02-26T09:08:09;14.50;;;14.10;;
3050;SDS011;1535;51.098;6.414;2024-02-26T09:10:37;14.23;;;13.83;;
3050;SDS011;1535;51.098;6.414;2024-02-26T09:13:04;14.57;;;14.17;;
3050;SDS011;1535;51.098;6.414;2024-02-26T09:15:33;15.80;;;15.30;;
3050;SDS011;1535;51.098;6.414;2024-02-26T09:18:01;15.10;;;14.70;;
3050;SDS011;1535;51.098;6.414;2024-02-26T09:20:28;15.13;;;14.73;;
3050;SDS011;1535;51.098;6.414;2024-02-26T09:22:55;15.30;;;14.80;;
3050;SDS011;1535;51.098;6.414;2024-02-26T09:25:23;15.80;;;15.30;;
3050;SDS011;1535;51.098;6.414;2024-02-26T09:27:50;15.00;;;14.60;;
3050;SDS011;1535;51.098;6.414;2024-02-26T09:30:17;14.53;;;14.13;;
3050;SDS011;1535;51.098;6.414;2024-02-26T09:35:40;15.83;;;15.33;;
3050;SDS011;1535;51.098;6.414;2024-02-26T09:38:07;15.90;;;15.40;;
3050;SDS011;1535;51.098;6.414;2024-02-26T09:40:35;16.37;;;15.87;;
3050;SDS011;1535;51.098;6.414;2024-02-26T09:43:02;16.50;;;16.00;;
3050;SDS011;1535;51.098;6.414;2024-02-26T09:45:32;16.63;;;16.13;;
3050;SDS011;1535;51.098;6.414;2024-02-26T09:47:59;16.13;;;15.63;;
3050;SDS011;1535;51.098;6.414;2024-02-26T09:50:42;17.20;;;16.60;;
3050;SDS011;1535;51.098;6.414;2024-02-26T09:53:10;17.43;;;16.83;;
3050;SDS011;1535;51.098;6.414;2024-02-26T09:55:39;17.13;;;16.53;;
3050;SDS011;1535;51.098;6.414;2024-02-26T09:58:07;16.60;;;16.10;;
3050;SDS011;1535;51.098;6.414;2024-02-26T10:00:35;16.77;;;16.17;;
3050;SDS011;1535;51.098;6.414;2024-02-26T10:03:05;16.83;;;16.23;;
3050;SDS011;1535;51.098;6.414;2024-02-26T10:05:32;18.00;;;17.40;;
3050;SDS011;1535;51.098;6.414;2024-02-26T10:08:01;17.40;;;16.80;;
3050;SDS011;1535;51.098;6.414;2024-02-26T10:10:28;17.40;;;16.80;;
3050;SDS011;1535;51.098;6.414;2024-02-26T10:12:56;16.97;;;16.37;;
3050;SDS011;1535;51.098;6.414;2024-02-26T10:15:23;17.30;;;16.70;;
3050;SDS011;1535;51.098;6.414;2024-02-26T10:17:50;17.00;;;16.40;;
3050;SDS011;1535;51.098;6.414;2024-02-26T10:20:18;16.90;;;16.30;;
3050;SDS011;1535;51.098;6.414;2024-02-26T10:22:46;16.37;;;15.87;;
3050;SDS011;1535;51.098;6.414;2024-02-26T10:25:15;15.73;;;15.23;;
3050;SDS011;1535;51.098;6.414;2024-02-26T10:27:43;16.10;;;15.60;;
3050;SDS011;1535;51.098;6.414;2024-02-26T10:30:15;15.47;;;14.97;;
3050;SDS011;1535;51.098;6.414;2024-02-26T10:32:44;15.37;;;14.87;;
3050;SDS011;1535;51.098;6.414;2024-02-26T10:35:11;14.97;;;14.47;;
3050;SDS011;1535;51.098;6.414;2024-02-26T10:37:39;14.60;;;14.20;;
3050;SDS011;1535;51.098;6.414;2024-02-26T10:40:09;15.50;;;15.00;;
3050;SDS011;1535;51.098;6.414;2024-02-26T10:42:38;14.80;;;14.40;;
3050;SDS011;1535;51.098;6.414;2024-02-26T10:45:05;14.57;;;14.17;;
3050;SDS011;1535;51.098;6.414;2024-02-26T10:47:34;14.43;;;14.03;;
3050;SDS011;1535;51.098;6.414;2024-02-26T10:50:01;14.23;;;13.83;;
3050;SDS011;1535;51.098;6.414;2024-02-26T10:52:29;14.87;;;14.43;;
3050;SDS011;1535;51.098;6.414;2024-02-26T10:54:59;14.70;;;14.30;;
3050;SDS011;1535;51.098;6.414;2024-02-26T10:57:28;14.93;;;14.43;;
3050;SDS011;1535;51.098;6.414;2024-02-26T10:59:58;15.70;;;15.20;;
3050;SDS011;1535;51.098;6.414;2024-02-26T11:02:29;14.90;;;14.40;;
3050;SDS011;1535;51.098;6.414;2024-02-26T11:04:56;15.07;;;14.57;;
3050;SDS011;1535;51.098;6.414;2024-02-26T11:07:24;15.43;;;14.93;;
3050;SDS011;1535;51.098;6.414;2024-02-26T11:09:51;15.63;;;15.13;;
3050;SDS011;1535;51.098;6.414;2024-02-26T11:12:20;16.03;;;15.53;;
3050;SDS011;1535;51.098;6.414;2024-02-26T11:14:47;15.47;;;14.97;;
3050;SDS011;1535;51.098;6.414;2024-02-26T11:17:21;15.37;;;14.87;;
3050;SDS011;1535;51.098;6.414;2024-02-26T11:19:49;15.53;;;15.03;;
3050;SDS011;1535;51.098;6.414;2024-02-26T11:22:16;15.77;;;15.20;;
3050;SDS011;1535;51.098;6.414;2024-02-26T11:24:44;14.90;;;14.40;;
3050;SDS011;1535;51.098;6.414;2024-02-26T11:27:11;14.77;;;14.27;;
3050;SDS011;1535;51.098;6.414;2024-02-26T11:29:39;14.80;;;14.30;;
3050;SDS011;1535;51.098;6.414;2024-02-26T11:32:08;14.63;;;14.13;;
3050;SDS011;1535;51.098;6.414;2024-02-26T11:34:37;15.20;;;14.70;;
3050;SDS011;1535;51.098;6.414;2024-02-26T11:37:08;14.63;;;14.13;;
3050;SDS011;1535;51.098;6.414;2024-02-26T11:39:36;15.20;;;14.70;;
3050;SDS011;1535;51.098;6.414;2024-02-26T11:42:07;15.30;;;14.80;;
3050;SDS011;1535;51.098;6.414;2024-02-26T11:44:34;14.83;;;14.33;;
3050;SDS011;1535;51.098;6.414;2024-02-26T11:47:11;14.90;;;14.40;;
3050;SDS011;1535;51.098;6.414;2024-02-26T11:49:40;15.17;;;14.67;;
3050;SDS011;1535;51.098;6.414;2024-02-26T11:52:07;14.83;;;14.33;;
3050;SDS011;1535;51.098;6.414;2024-02-26T11:54:38;15.03;;;14.53;;
3050;SDS011;1535;51.098;6.414;2024-02-26T11:57:20;14.80;;;14.30;;
3050;SDS011;1535;51.098;6.414;2024-02-26T11:59:47;14.90;;;14.40;;
3050;SDS011;1535;51.098;6.414;2024-02-26T12:04:58;15.10;;;14.60;;
3050;SDS011;1535;51.098;6.414;2024-02-26T12:07:26;15.70;;;15.20;;
3050;SDS011;1535;51.098;6.414;2024-02-26T12:09:56;15.63;;;15.13;;
3050;SDS011;1535;51.098;6.414;2024-02-26T12:12:41;15.63;;;15.13;;
3050;SDS011;1535;51.098;6.414;2024-02-26T12:15:08;15.90;;;15.40;;
3050;SDS011;1535;51.098;6.414;2024-02-26T12:17:36;15.17;;;14.67;;
3050;SDS011;1535;51.098;6.414;2024-02-26T12:20:14;15.30;;;14.80;;
3050;SDS011;1535;51.098;6.414;2024-02-26T12:22:42;15.30;;;14.80;;
3050;SDS011;1535;51.098;6.414;2024-02-26T12:25:12;15.10;;;14.60;;
3050;SDS011;1535;51.098;6.414;2024-02-26T12:27:39;14.63;;;14.23;;
3050;SDS011;1535;51.098;6.414;2024-02-26T12:30:07;15.00;;;14.50;;
3050;SDS011;1535;51.098;6.414;2024-02-26T12:32:34;15.00;;;14.50;;
3050;SDS011;1535;51.098;6.414;2024-02-26T12:35:02;15.23;;;14.73;;
3050;SDS011;1535;51.098;6.414;2024-02-26T12:37:32;14.80;;;14.30;;
3050;SDS011;1535;51.098;6.414;2024-02-26T12:40:01;14.67;;;14.20;;
3050;SDS011;1535;51.098;6.414;2024-02-26T12:42:29;14.67;;;14.23;;
3050;SDS011;1535;51.098;6.414;2024-02-26T12:44:57;15.57;;;15.07;;
3050;SDS011;1535;51.098;6.414;2024-02-26T12:47:24;15.90;;;15.40;;
3050;SDS011;1535;51.098;6.414;2024-02-26T12:49:51;15.00;;;14.50;;
3050;SDS011;1535;51.098;6.414;2024-02-26T12:52:19;14.90;;;14.40;;
3050;SDS011;1535;51.098;6.414;2024-02-26T12:54:48;14.63;;;14.13;;
3050;SDS011;1535;51.098;6.414;2024-02-26T12:57:15;14.77;;;14.27;;
3050;SDS011;1535;51.098;6.414;2024-02-26T12:59:42;15.30;;;14.80;;
3050;SDS011;1535;51.098;6.414;2024-02-26T13:02:10;15.20;;;14.70;;
3050;SDS011;1535;51.098;6.414;2024-02-26T13:04:37;14.43;;;14.03;;
3050;SDS011;1535;51.098;6.414;2024-02-26T13:07:05;14.97;;;14.47;;
3050;SDS011;1535;51.098;6.414;2024-02-26T13:09:32;14.70;;;14.20;;
3050;SDS011;1535;51.098;6.414;2024-02-26T13:12:03;14.10;;;13.70;;
3050;SDS011;1535;51.098;6.414;2024-02-26T13:14:31;13.43;;;13.03;;
3050;SDS011;1535;51.098;6.414;2024-02-26T13:16:59;13.37;;;12.97;;
3050;SDS011;1535;51.098;6.414;2024-02-26T13:19:26;12.90;;;12.60;;
3050;SDS011;1535;51.098;6.414;2024-02-26T13:21:53;12.77;;;12.47;;
3050;SDS011;1535;51.098;6.414;2024-02-26T13:24:21;13.13;;;12.73;;
3050;SDS011;1535;51.098;6.414;2024-02-26T13:26:53;13.27;;;12.87;;
3050;SDS011;1535;51.098;6.414;2024-02-26T13:29:22;13.60;;;13.20;;
3050;SDS011;1535;51.098;6.414;2024-02-26T13:31:53;13.70;;;13.30;;
3050;SDS011;1535;51.098;6.414;2024-02-26T13:34:24;12.70;;;12.40;;
3050;SDS011;1535;51.098;6.414;2024-02-26T13:36:51;13.80;;;13.40;;
3050;SDS011;1535;51.098;6.414;2024-02-26T13:39:22;13.23;;;12.83;;
3050;SDS011;1535;51.098;6.414;2024-02-26T13:41:49;13.23;;;12.83;;
3050;SDS011;1535;51.098;6.414;2024-02-26T13:44:16;14.30;;;13.90;;
3050;SDS011;1535;51.098;6.414;2024-02-26T13:46:44;14.60;;;14.20;;
3050;SDS011;1535;51.098;6.414;2024-02-26T13:49:11;14.83;;;14.33;;
3050;SDS011;1535;51.098;6.414;2024-02-26T13:51:39;14.47;;;14.07;;
3050;SDS011;1535;51.098;6.414;2024-02-26T13:54:06;13.77;;;13.37;;
3050;SDS011;1535;51.098;6.414;2024-02-26T13:56:34;13.77;;;13.37;;
3050;SDS011;1535;51.098;6.414;2024-02-26T13:59:01;14.00;;;13.60;;
3050;SDS011;1535;51.098;6.414;2024-02-26T14:01:29;14.00;;;13.60;;
3050;SDS011;1535;51.098;6.414;2024-02-26T14:03:59;14.30;;;13.90;;
3050;SDS011;1535;51.098;6.414;2024-02-26T14:06:27;13.63;;;13.23;;
3050;SDS011;1535;51.098;6.414;2024-02-26T14:08:55;14.20;;;13.80;;
3050;SDS011;1535;51.098;6.414;2024-02-26T14:11:22;15.00;;;14.50;;
3050;SDS011;1535;51.098;6.414;2024-02-26T14:13:50;13.73;;;13.33;;
3050;SDS011;1535;51.098;6.414;2024-02-26T14:16:17;14.40;;;14.00;;
3050;SDS011;1535;51.098;6.414;2024-02-26T14:18:45;14.67;;;14.27;;
3050;SDS011;1535;51.098;6.414;2024-02-26T14:21:13;15.30;;;14.80;;
3050;SDS011;1535;51.098;6.414;2024-02-26T14:23:41;15.03;;;14.53;;
3050;SDS011;1535;51.098;6.414;2024-02-26T14:26:09;15.40;;;14.90;;
3050;SDS011;1535;51.098;6.414;2024-02-26T14:28:37;14.90;;;14.40;;
3050;SDS011;1535;51.098;6.414;2024-02-26T14:31:05;15.20;;;14.70;;
3050;SDS011;1535;51.098;6.414;2024-02-26T14:33:46;14.90;;;14.40;;
3050;SDS011;1535;51.098;6.414;2024-02-26T14:36:19;14.73;;;14.23;;
3050;SDS011;1535;51.098;6.414;2024-02-26T14:38:46;15.03;;;14.53;;
3050;SDS011;1535;51.098;6.414;2024-02-26T14:41:13;14.90;;;14.40;;
3050;SDS011;1535;51.098;6.414;2024-02-26T14:43:40;16.00;;;15.50;;
3050;SDS011;1535;51.098;6.414;2024-02-26T14:46:08;15.03;;;14.53;;
3050;SDS011;1535;51.098;6.414;2024-02-26T14:48:35;15.80;;;15.30;;
3050;SDS011;1535;51.098;6.414;2024-02-26T14:51:03;15.60;;;15.10;;
3050;SDS011;1535;51.098;6.414;2024-02-26T14:53:32;15.60;;;15.10;;
3050;SDS011;1535;51.098;6.414;2024-02-26T14:56:00;15.67;;;15.10;;
3050;SDS011;1535;51.098;6.414;2024-02-26T14:58:27;16.10;;;15.50;;